Time;durP1;ratioP1;P1;durP2;ratioP2;P2;SDS_P1;SDS_P2;PMS_P1;PMS_P2;Temp;Humidity;BMP_temperature;BMP_pressure;BME280_temperature;BME280_humidity;BME280_pressure;Samples;Min_cycle;Max_cycle;Signal;HPM_P1;HPM_P2
2021/03/11 00:01:02;;;;;;;13.17;11.53;;;9.50;60.90;;;;;;10406065;28;20198;-77
2021/03/11 00:06:03;;;;;;;11.90;10.70;;;9.50;60.60;;;;;;10410428;28;20316;-77
2021/03/11 00:11:06;;;;;;;12.40;11.10;;;9.60;61.40;;;;;;10411597;28;20221;-77
2021/03/11 00:16:08;;;;;;;12.23;10.93;;;9.50;60.60;;;;;;10432068;28;20371;-77
2021/03/11 00:21:09;;;;;;;13.97;11.13;;;9.60;60.30;;;;;;10402688;28;20285;-77
2021/03/11 00:26:12;;;;;;;11.00;9.90;;;9.50;60.50;;;;;;10413014;28;20701;-77
2021/03/11 00:31:13;;;;;;;11.90;10.57;;;9.60;60.40;;;;;;10416416;28;20228;-80
2021/03/11 00:36:15;;;;;;;13.37;10.70;;;9.60;60.90;;;;;;10416596;28;20324;-80
2021/03/11 00:41:17;;;;;;;12.13;10.40;;;9.60;61.20;;;;;;10417900;28;20293;-79
2021/03/11 00:46:20;;;;;;;12.50;10.40;;;9.60;61.10;;;;;;10418401;28;20222;-80
2021/03/11 00:51:22;;;;;;;13.63;10.70;;;9.70;61.60;;;;;;10397483;28;20225;-80
2021/03/11 00:56:25;;;;;;;13.13;10.97;;;9.70;61.50;;;;;;10417178;28;20226;-79
2021/03/11 01:01:26;;;;;;;11.97;10.67;;;9.70;61.50;;;;;;10418458;28;20194;-80
2021/03/11 01:06:31;;;;;;;12.80;10.40;;;9.80;61.70;;;;;;10418669;28;20217;-80
2021/03/11 01:11:33;;;;;;;13.17;11.20;;;9.70;62.30;;;;;;10408957;28;20233;-82
2021/03/11 01:16:35;;;;;;;12.80;10.70;;;9.80;62.20;;;;;;10414898;28;20312;-80
2021/03/11 01:21:36;;;;;;;13.53;11.60;;;9.70;63.10;;;;;;10401512;28;20199;-80
2021/03/11 01:26:39;;;;;;;12.77;11.17;;;9.70;63.10;;;;;;10403469;28;20218;-81
2021/03/11 01:31:41;;;;;;;13.87;11.00;;;9.70;63.30;;;;;;10405231;28;20258;-80
2021/03/11 01:36:42;;;;;;;12.40;10.10;;;9.70;63.70;;;;;;10403057;28;20248;-80
2021/03/11 01:41:45;;;;;;;11.53;8.67;;;9.70;63.00;;;;;;10401219;28;20201;-79
2021/03/11 01:46:46;;;;;;;10.97;8.50;;;9.70;64.80;;;;;;10400418;28;20575;-79
2021/03/11 01:51:49;;;;;;;8.90;7.70;;;9.70;63.90;;;;;;10419189;28;20580;-79
2021/03/11 01:56:52;;;;;;;10.60;7.70;;;9.70;64.80;;;;;;10417989;28;20225;-79
2021/03/11 02:01:53;;;;;;;7.20;6.10;;;9.80;65.10;;;;;;10411931;28;20210;-79
2021/03/11 02:06:58;;;;;;;6.30;5.70;;;9.80;66.10;;;;;;10414319;28;20253;-78
2021/03/11 02:12:10;;;;;;;7.50;6.10;;;9.80;67.50;;;;;;10418014;28;20308;-79
2021/03/11 02:17:14;;;;;;;5.90;4.97;;;9.80;67.20;;;;;;10419617;28;20280;-79
2021/03/11 02:22:22;;;;;;;10.10;5.13;;;9.80;68.10;;;;;;10419313;28;20197;-79
2021/03/11 02:27:34;;;;;;;9.90;5.67;;;9.90;68.30;;;;;;10412691;28;20267;-79
2021/03/11 02:32:39;;;;;;;6.23;5.10;;;9.90;68.30;;;;;;10417770;28;20230;-79
2021/03/11 02:37:43;;;;;;;5.73;5.03;;;9.90;68.30;;;;;;10400275;28;20198;-78
2021/03/11 02:42:49;;;;;;;6.30;5.00;;;9.90;68.60;;;;;;10419395;22;20244;-79
2021/03/11 02:48:06;;;;;;;6.27;5.60;;;9.90;67.70;;;;;;10500142;28;20208;-78
2021/03/11 02:53:10;;;;;;;6.20;5.60;;;9.90;68.00;;;;;;10498882;28;20312;-77
2021/03/11 02:58:13;;;;;;;6.50;5.90;;;9.90;68.10;;;;;;10481358;28;20239;-80
2021/03/11 03:03:16;;;;;;;7.37;6.67;;;10.00;67.10;;;;;;10498238;28;20688;-79
2021/03/11 03:08:19;;;;;;;7.53;6.40;;;9.90;67.40;;;;;;10479966;28;20232;-80
2021/03/11 03:13:22;;;;;;;6.87;6.27;;;10.00;65.60;;;;;;10483554;28;20220;-79
2021/03/11 03:18:25;;;;;;;8.07;6.27;;;9.90;66.60;;;;;;10497349;28;20283;-79
2021/03/11 03:23:28;;;;;;;8.10;6.20;;;9.90;67.70;;;;;;10502810;28;20691;-79
2021/03/11 03:28:30;;;;;;;9.07;7.70;;;9.90;67.80;;;;;;10512796;28;20203;-79
2021/03/11 03:33:32;;;;;;;8.20;7.40;;;9.90;67.60;;;;;;10480760;28;20761;-79
2021/03/11 03:38:34;;;;;;;10.83;7.70;;;9.80;71.30;;;;;;10496129;28;20205;-79
2021/03/11 03:43:37;;;;;;;7.73;6.90;;;9.70;73.10;;;;;;10502694;28;20281;-79
2021/03/11 03:48:44;;;;;;;8.10;7.30;;;9.60;74.40;;;;;;10503975;28;20579;-80
2021/03/11 03:53:51;;;;;;;7.67;6.17;;;9.60;73.70;;;;;;10496484;28;20221;-79
2021/03/11 03:58:57;;;;;;;7.47;6.07;;;9.60;73.30;;;;;;10502862;28;20230;-79
2021/03/11 04:04:02;;;;;;;8.20;5.53;;;9.60;72.40;;;;;;10503235;28;20219;-79
2021/03/11 04:09:09;;;;;;;5.50;5.00;;;9.70;73.50;;;;;;10512112;28;20204;-79
2021/03/11 04:14:11;;;;;;;5.40;4.90;;;9.80;72.30;;;;;;10509489;28;20223;-79
2021/03/11 04:19:15;;;;;;;4.80;4.33;;;9.90;73.50;;;;;;10507917;28;20569;-78
2021/03/11 04:24:17;;;;;;;7.77;4.30;;;10.00;73.80;;;;;;10478277;28;20303;-77
2021/03/11 04:29:19;;;;;;;5.00;4.50;;;10.00;74.30;;;;;;10477644;28;20204;-78
2021/03/11 04:34:22;;;;;;;4.27;3.47;;;10.10;74.70;;;;;;10495637;28;20221;-78
2021/03/11 04:39:24;;;;;;;5.00;4.50;;;10.20;75.30;;;;;;10483058;28;20618;-77
2021/03/11 04:44:27;;;;;;;4.30;3.83;;;10.30;75.30;;;;;;10518292;28;20326;-78
2021/03/11 04:49:31;;;;;;;3.87;3.57;;;10.30;75.40;;;;;;10520082;28;20586;-78
2021/03/11 04:54:34;;;;;;;4.07;3.60;;;10.40;75.50;;;;;;10518013;28;20227;-78
2021/03/11 04:59:37;;;;;;;4.20;3.90;;;10.40;75.90;;;;;;10490380;28;20288;-77
2021/03/11 05:04:43;;;;;;;4.37;3.90;;;10.40;76.20;;;;;;10481892;28;20229;-78
2021/03/11 05:09:45;;;;;;;4.57;3.90;;;10.50;77.00;;;;;;10486165;28;20213;-79
2021/03/11 05:14:46;;;;;;;4.07;3.43;;;10.50;76.60;;;;;;10487485;28;20603;-79
2021/03/11 05:19:49;;;;;;;3.70;3.17;;;10.50;76.80;;;;;;10503559;28;20231;-77
2021/03/11 05:24:50;;;;;;;4.07;3.40;;;10.50;76.80;;;;;;10506825;28;20325;-78
2021/03/11 05:29:52;;;;;;;4.03;3.73;;;10.50;76.80;;;;;;10503129;28;20239;-78
2021/03/11 05:34:55;;;;;;;4.13;3.73;;;10.60;76.70;;;;;;10495341;28;20220;-79
2021/03/11 05:39:57;;;;;;;6.40;3.27;;;10.60;77.50;;;;;;10530285;28;20204;-80
2021/03/11 05:45:03;;;;;;;4.87;3.70;;;10.60;77.20;;;;;;10494357;28;20605;-80
2021/03/11 05:50:08;;;;;;;4.17;3.60;;;10.50;77.40;;;;;;10503643;28;20213;-80
2021/03/11 05:55:10;;;;;;;3.73;3.37;;;10.50;77.50;;;;;;10514261;28;20785;-79
2021/03/11 06:00:14;;;;;;;4.80;3.87;;;10.50;78.10;;;;;;10524402;28;20633;-78
2021/03/11 06:05:18;;;;;;;4.83;3.57;;;10.50;78.50;;;;;;10501762;28;20255;-80
2021/03/11 06:10:21;;;;;;;4.73;3.80;;;10.50;78.80;;;;;;10474208;28;20545;-78
2021/03/11 06:15:28;;;;;;;4.77;3.70;;;10.50;78.80;;;;;;10481240;28;20686;-79
2021/03/11 06:20:30;;;;;;;6.03;3.60;;;10.50;79.30;;;;;;10469629;28;20485;-79
2021/03/11 06:25:34;;;;;;;3.67;3.37;;;10.50;79.60;;;;;;10496619;28;20217;-80
2021/03/11 06:30:39;;;;;;;3.43;3.10;;;10.60;79.40;;;;;;10483739;28;20205;-78
2021/03/11 06:35:42;;;;;;;5.13;4.07;;;10.60;79.20;;;;;;10484197;28;20710;-79
2021/03/11 06:40:53;;;;;;;3.13;2.83;;;10.70;79.20;;;;;;10513802;28;20578;-78
2021/03/11 06:46:05;;;;;;;5.23;3.60;;;10.70;79.00;;;;;;10503980;28;20233;-80
2021/03/11 06:51:17;;;;;;;4.63;3.17;;;10.70;79.00;;;;;;10512387;28;20227;-79
2021/03/11 06:56:20;;;;;;;4.33;3.30;;;10.80;78.80;;;;;;10496652;28;20220;-79
2021/03/11 07:01:23;;;;;;;5.63;2.80;;;10.90;78.10;;;;;;10496922;28;20228;-79
2021/03/11 07:06:31;;;;;;;2.57;2.23;;;10.90;77.80;;;;;;10477065;28;20727;-77
2021/03/11 07:11:33;;;;;;;3.13;2.43;;;10.90;78.40;;;;;;10477492;28;20777;-79
2021/03/11 07:16:35;;;;;;;3.60;2.57;;;11.00;77.40;;;;;;10495042;28;20277;-78
2021/03/11 07:21:43;;;;;;;3.90;2.50;;;11.10;77.40;;;;;;10526977;28;20274;-78
2021/03/11 07:26:56;;;;;;;3.27;2.50;;;11.10;77.50;;;;;;10513573;28;20246;-78
2021/03/11 07:31:59;;;;;;;3.30;2.80;;;11.20;77.90;;;;;;10474495;28;20692;-79
2021/03/11 07:37:02;;;;;;;4.47;2.00;;;11.30;77.80;;;;;;10511748;28;20228;-79
2021/03/11 07:42:06;;;;;;;2.70;2.50;;;11.40;77.90;;;;;;10498869;28;20209;-79
2021/03/11 07:47:09;;;;;;;2.97;2.77;;;11.50;78.10;;;;;;10474283;28;20205;-78
2021/03/11 07:52:12;;;;;;;2.30;2.10;;;11.50;78.20;;;;;;10474949;28;20239;-79
2021/03/11 07:57:13;;;;;;;2.43;2.20;;;11.60;78.00;;;;;;10459644;28;20205;-78
2021/03/11 08:02:20;;;;;;;3.30;2.40;;;11.80;78.10;;;;;;10477101;28;20204;-79
2021/03/11 08:07:23;;;;;;;3.70;2.20;;;11.90;78.00;;;;;;10493802;28;20635;-80
2021/03/11 08:12:30;;;;;;;7.27;2.53;;;12.00;77.80;;;;;;10459643;28;22573;-80
2021/03/11 08:17:46;;;;;;;2.23;2.03;;;12.00;77.40;;;;;;10525141;22;20252;-77
2021/03/11 08:23:02;;;;;;;2.40;1.97;;;12.20;77.40;;;;;;10524835;28;20538;-77
2021/03/11 08:28:38;;;;;;;2.30;2.20;;;12.30;77.20;;;;;;10528481;28;20233;-77
2021/03/11 08:33:45;;;;;;;2.57;2.07;;;12.50;77.10;;;;;;10520739;28;20230;-76
2021/03/11 08:38:50;;;;;;;2.33;2.13;;;12.60;76.30;;;;;;10526376;28;20196;-78
2021/03/11 08:43:52;;;;;;;2.70;1.70;;;12.70;76.10;;;;;;10529074;28;20247;-78
2021/03/11 08:48:57;;;;;;;2.70;2.37;;;12.90;76.30;;;;;;10518442;28;20697;-78
2021/03/11 08:54:00;;;;;;;3.47;2.03;;;13.00;76.10;;;;;;10509401;28;20220;-78
2021/03/11 08:59:04;;;;;;;2.17;1.97;;;13.10;75.90;;;;;;10513344;28;20299;-77
2021/03/11 09:04:07;;;;;;;2.27;2.07;;;13.20;76.70;;;;;;10498782;28;20274;-77
2021/03/11 09:09:10;;;;;;;2.43;1.90;;;13.40;77.10;;;;;;10519649;28;20303;-77
2021/03/11 09:14:12;;;;;;;1.60;1.50;;;13.50;77.00;;;;;;10502406;28;20231;-77
2021/03/11 09:19:14;;;;;;;1.40;1.30;;;13.70;77.00;;;;;;10520402;28;20711;-77
2021/03/11 09:24:18;;;;;;;3.40;1.73;;;13.80;76.50;;;;;;10504993;28;20570;-78
2021/03/11 09:29:19;;;;;;;1.53;1.43;;;13.80;76.40;;;;;;10496782;28;20578;-77
2021/03/11 09:34:21;;;;;;;2.20;1.90;;;14.00;76.20;;;;;;10519486;28;20611;-77
2021/03/11 09:39:23;;;;;;;1.97;1.87;;;14.10;75.70;;;;;;10523983;28;20216;-77
2021/03/11 09:44:25;;;;;;;1.77;1.60;;;14.20;75.20;;;;;;10519758;28;20252;-78
2021/03/11 09:49:27;;;;;;;2.77;1.83;;;14.20;75.40;;;;;;10513189;28;20200;-77
2021/03/11 09:54:29;;;;;;;3.03;1.70;;;14.30;75.30;;;;;;10520358;28;20215;-77
2021/03/11 09:59:31;;;;;;;2.03;1.67;;;14.40;75.10;;;;;;10527514;28;20649;-77
2021/03/11 10:04:35;;;;;;;2.47;1.60;;;14.40;75.50;;;;;;10515438;28;20216;-77
2021/03/11 10:09:39;;;;;;;3.23;1.43;;;14.40;75.50;;;;;;10517159;28;20196;-77
2021/03/11 10:14:42;;;;;;;1.27;1.17;;;14.40;75.70;;;;;;10504901;28;20306;-77
2021/03/11 10:19:44;;;;;;;1.20;1.10;;;14.50;76.20;;;;;;10502492;28;20204;-77
2021/03/11 10:24:49;;;;;;;1.40;1.30;;;14.50;76.60;;;;;;10511765;28;20220;-77
2021/03/11 10:30:04;;;;;;;6.93;1.40;;;14.80;76.70;;;;;;10517214;28;20300;-77
2021/03/11 10:35:08;;;;;;;1.30;1.20;;;15.00;76.60;;;;;;10535559;28;20303;-77
2021/03/11 10:40:13;;;;;;;2.20;1.40;;;15.10;77.00;;;;;;10509651;28;20204;-77
2021/03/11 10:45:16;;;;;;;1.47;1.20;;;15.10;77.40;;;;;;10505011;28;20232;-77
2021/03/11 10:50:19;;;;;;;1.40;1.30;;;15.20;78.00;;;;;;10499973;28;20734;-77
2021/03/11 10:55:28;;;;;;;1.20;1.10;;;15.30;77.80;;;;;;10505928;28;20232;-77
2021/03/11 11:00:31;;;;;;;1.47;1.37;;;15.30;78.00;;;;;;10510468;28;20195;-77
2021/03/11 11:05:33;;;;;;;1.63;1.30;;;15.10;78.50;;;;;;10509139;28;20219;-77
2021/03/11 11:10:36;;;;;;;2.30;1.30;;;15.00;79.80;;;;;;10509037;28;20228;-77
2021/03/11 11:15:38;;;;;;;1.53;1.30;;;14.70;83.20;;;;;;10508829;28;20314;-78
2021/03/11 11:20:40;;;;;;;1.53;1.43;;;14.50;86.10;;;;;;10515448;28;20254;-77
2021/03/11 11:25:43;;;;;;;1.83;1.73;;;14.20;89.90;;;;;;10512170;28;20770;-77
2021/03/11 11:30:45;;;;;;;1.80;1.70;;;13.90;91.80;;;;;;10516135;28;20201;-78
2021/03/11 11:35:49;;;;;;;1.80;1.70;;;13.60;92.70;;;;;;10530351;28;20273;-77
2021/03/11 11:40:51;;;;;;;1.67;1.57;;;13.30;93.50;;;;;;10491286;28;20558;-77
2021/03/11 11:45:53;;;;;;;1.80;1.70;;;13.10;94.80;;;;;;10487087;28;20220;-77
2021/03/11 11:50:55;;;;;;;2.00;1.73;;;13.00;95.40;;;;;;10497320;28;20212;-77
2021/03/11 11:55:57;;;;;;;2.53;1.93;;;12.80;96.10;;;;;;10497958;28;20224;-78
2021/03/11 12:00:59;;;;;;;2.03;1.93;;;12.70;96.70;;;;;;10507636;28;20618;-77
2021/03/11 12:06:01;;;;;;;2.30;2.20;;;12.60;97.50;;;;;;10484492;28;20216;-77
2021/03/11 12:11:04;;;;;;;2.57;2.47;;;12.70;98.60;;;;;;10487397;28;20215;-77
2021/03/11 12:16:06;;;;;;;1.73;1.70;;;12.80;98.60;;;;;;10508327;28;20322;-77
2021/03/11 12:21:08;;;;;;;2.00;1.90;;;12.90;98.50;;;;;;10513158;28;20188;-77
2021/03/11 12:26:11;;;;;;;1.90;1.80;;;12.90;98.30;;;;;;10510608;28;20269;-77
2021/03/11 12:31:14;;;;;;;1.83;1.73;;;12.90;99.10;;;;;;10507932;28;20212;-77
2021/03/11 12:36:16;;;;;;;1.77;1.77;;;12.90;99.20;;;;;;10516752;28;20220;-77
2021/03/11 12:41:20;;;;;;;1.80;1.70;;;12.90;99.50;;;;;;10490271;28;20203;-77
2021/03/11 12:46:21;;;;;;;1.43;1.33;;;12.90;99.20;;;;;;10491196;28;20247;-77
2021/03/11 12:51:24;;;;;;;1.50;1.40;;;13.00;99.30;;;;;;10490667;28;20209;-77
2021/03/11 12:56:27;;;;;;;1.40;1.30;;;13.20;98.80;;;;;;10490605;28;20266;-78
2021/03/11 13:01:29;;;;;;;1.60;1.50;;;13.50;98.40;;;;;;10492311;28;20323;-77
2021/03/11 13:06:30;;;;;;;1.47;1.37;;;13.60;97.80;;;;;;10492144;28;20229;-78
2021/03/11 13:11:33;;;;;;;1.17;1.07;;;13.70;97.20;;;;;;10521788;28;20212;-77
2021/03/11 13:16:38;;;;;;;1.97;1.20;;;13.70;97.00;;;;;;10522358;28;20838;-76
2021/03/11 13:21:40;;;;;;;1.50;1.40;;;13.70;97.70;;;;;;10516084;28;20195;-77
2021/03/11 13:26:42;;;;;;;2.03;1.37;;;13.70;97.90;;;;;;10519558;28;20216;-78
2021/03/11 13:31:44;;;;;;;1.93;1.60;;;13.60;98.30;;;;;;10514891;28;20244;-77
2021/03/11 13:36:46;;;;;;;1.67;1.57;;;13.70;98.10;;;;;;10517699;28;20592;-77
2021/03/11 13:41:49;;;;;;;1.50;1.40;;;13.80;97.50;;;;;;10517382;28;20203;-77
2021/03/11 13:46:50;;;;;;;1.43;1.37;;;13.80;97.60;;;;;;10514931;28;20220;-77
2021/03/11 13:51:52;;;;;;;1.30;1.30;;;13.70;97.30;;;;;;10503172;28;20899;-77
2021/03/11 13:56:55;;;;;;;1.03;1.03;;;13.80;97.00;;;;;;10506554;28;20221;-77
2021/03/11 14:01:56;;;;;;;1.20;1.20;;;13.90;96.90;;;;;;10490442;28;20660;-77
2021/03/11 14:06:58;;;;;;;1.20;1.20;;;13.80;96.20;;;;;;10505425;28;20266;-77
2021/03/11 14:12:01;;;;;;;1.23;1.20;;;13.90;96.70;;;;;;10507581;28;20667;-77
2021/03/11 14:17:03;;;;;;;1.43;1.20;;;13.90;96.60;;;;;;10514429;22;20255;-80
2021/03/11 14:22:05;;;;;;;1.40;1.20;;;14.00;95.90;;;;;;10488013;28;20618;-80
2021/03/11 14:27:08;;;;;;;1.20;1.10;;;14.00;96.00;;;;;;10486764;28;20212;-79
2021/03/11 14:32:10;;;;;;;1.23;1.23;;;14.00;96.20;;;;;;10490726;28;20658;-79
2021/03/11 14:37:11;;;;;;;1.40;1.30;;;14.10;95.70;;;;;;10488613;28;20750;-81
2021/03/11 14:42:14;;;;;;;1.20;1.10;;;14.10;95.30;;;;;;10486620;28;20559;-78
2021/03/11 14:47:16;;;;;;;1.10;1.10;;;14.20;96.10;;;;;;10487153;28;20755;-80
2021/03/11 14:52:18;;;;;;;1.20;1.07;;;14.10;96.00;;;;;;10506326;28;20223;-78
2021/03/11 14:57:20;;;;;;;1.00;1.00;;;14.10;95.90;;;;;;10490983;28;20307;-79
2021/03/11 15:02:22;;;;;;;1.43;1.33;;;14.10;96.10;;;;;;10487454;28;20197;-79
2021/03/11 15:07:24;;;;;;;1.00;1.00;;;14.00;96.00;;;;;;10490302;28;20785;-79
2021/03/11 15:12:27;;;;;;;0.90;0.90;;;13.80;95.30;;;;;;10490173;28;20216;-79
2021/03/11 15:17:28;;;;;;;0.97;0.93;;;13.70;94.90;;;;;;10488669;28;20232;-79
2021/03/11 15:22:30;;;;;;;1.00;1.00;;;13.70;95.40;;;;;;10472673;28;20200;-81
2021/03/11 15:27:32;;;;;;;2.50;1.33;;;13.60;94.60;;;;;;10487289;28;20750;-81
2021/03/11 15:32:35;;;;;;;1.10;1.00;;;13.50;94.10;;;;;;10482294;28;20307;-80
2021/03/11 15:37:36;;;;;;;1.00;1.00;;;13.40;94.30;;;;;;10488225;28;20228;-79
2021/03/11 15:42:39;;;;;;;1.20;0.80;;;13.40;92.90;;;;;;10489113;28;20243;-79
2021/03/11 15:47:41;;;;;;;0.90;0.90;;;13.30;92.70;;;;;;10484420;28;20224;-79
2021/03/11 15:52:43;;;;;;;1.17;1.10;;;13.20;91.10;;;;;;10488129;28;20231;-78
2021/03/11 15:57:45;;;;;;;1.37;1.27;;;13.00;90.70;;;;;;10489119;28;20724;-80
2021/03/11 16:02:47;;;;;;;1.27;1.17;;;12.80;90.80;;;;;;10473583;28;20768;-79
2021/03/11 16:07:49;;;;;;;1.63;1.10;;;12.50;92.60;;;;;;10488969;28;20278;-78
2021/03/11 16:12:51;;;;;;;1.27;1.27;;;12.30;93.80;;;;;;10488622;28;20738;-78
2021/03/11 16:17:55;;;;;;;0.80;0.80;;;12.20;93.90;;;;;;10491007;28;20319;-79
2021/03/11 16:22:57;;;;;;;1.30;1.20;;;12.20;93.90;;;;;;10469558;28;20551;-79
2021/03/11 16:28:01;;;;;;;1.73;1.07;;;12.20;94.00;;;;;;10486534;28;20224;-79
2021/03/11 16:33:04;;;;;;;1.00;1.00;;;12.20;94.50;;;;;;10488146;28;20669;-79
2021/03/11 16:38:05;;;;;;;1.27;1.00;;;12.20;94.30;;;;;;10468388;28;20228;-80
2021/03/11 16:43:08;;;;;;;1.13;0.90;;;12.10;95.20;;;;;;10493731;28;20224;-80
2021/03/11 16:48:12;;;;;;;0.80;0.80;;;12.10;95.10;;;;;;10513548;28;20232;-79
2021/03/11 16:53:15;;;;;;;1.37;1.20;;;12.10;94.70;;;;;;10513042;28;20229;-80
2021/03/11 16:58:18;;;;;;;2.43;1.20;;;12.00;95.10;;;;;;10511577;28;20569;-80
2021/03/11 17:03:19;;;;;;;1.00;0.90;;;11.80;95.50;;;;;;10482996;28;20595;-78
2021/03/11 17:08:21;;;;;;;2.23;1.60;;;11.70;96.00;;;;;;10503248;28;20773;-79
2021/03/11 17:13:24;;;;;;;2.30;1.00;;;11.60;96.10;;;;;;10509349;28;20274;-80
2021/03/11 17:18:27;;;;;;;1.40;1.10;;;11.60;95.50;;;;;;10518245;28;20201;-80
2021/03/11 17:23:29;;;;;;;3.13;1.50;;;11.60;95.20;;;;;;10503932;28;20193;-80
2021/03/11 17:28:32;;;;;;;1.47;1.37;;;11.60;94.60;;;;;;10486762;28;20729;-80
2021/03/11 17:33:33;;;;;;;1.17;1.00;;;11.60;94.50;;;;;;10483748;28;20787;-79
2021/03/11 17:38:38;;;;;;;1.73;1.03;;;11.60;93.70;;;;;;10506586;28;20215;-78
2021/03/11 17:43:40;;;;;;;1.33;1.23;;;11.60;93.90;;;;;;10500494;28;20225;-79
2021/03/11 17:48:42;;;;;;;2.00;1.40;;;11.60;93.80;;;;;;10502127;28;20207;-80
2021/03/11 17:53:44;;;;;;;2.70;1.30;;;11.60;94.00;;;;;;10496301;28;20240;-80
2021/03/11 17:58:46;;;;;;;1.43;1.17;;;11.60;93.70;;;;;;10499680;28;20196;-80
2021/03/11 18:03:48;;;;;;;1.53;1.10;;;11.60;93.60;;;;;;10500785;28;20253;-77
2021/03/11 18:08:50;;;;;;;1.47;1.07;;;11.50;93.30;;;;;;10499262;28;20197;-78
2021/03/11 18:13:52;;;;;;;1.47;1.27;;;11.50;93.50;;;;;;10496040;28;20229;-79
2021/03/11 18:18:54;;;;;;;1.83;1.40;;;11.50;93.40;;;;;;10516332;28;20219;-79
2021/03/11 18:23:56;;;;;;;1.50;1.40;;;11.50;93.40;;;;;;10511671;28;20786;-80
2021/03/11 18:28:59;;;;;;;1.60;1.50;;;11.50;93.10;;;;;;10522290;28;20284;-81
2021/03/11 18:34:00;;;;;;;1.50;1.23;;;11.50;92.90;;;;;;10523208;28;20263;-79
2021/03/11 18:39:03;;;;;;;2.03;1.80;;;11.40;93.00;;;;;;10504867;28;20205;-80
2021/03/11 18:44:07;;;;;;;2.17;1.47;;;11.40;92.70;;;;;;10521637;28;20220;-80
2021/03/11 18:49:09;;;;;;;1.50;1.40;;;11.30;92.80;;;;;;10490347;28;20204;-79
2021/03/11 18:54:11;;;;;;;2.40;1.50;;;11.30;92.30;;;;;;10511416;28;20224;-79
2021/03/11 18:59:14;;;;;;;2.50;1.30;;;11.30;92.70;;;;;;10499784;28;20201;-79
2021/03/11 19:04:15;;;;;;;1.43;1.13;;;11.30;92.90;;;;;;10492327;28;20221;-78
2021/03/11 19:09:17;;;;;;;2.90;1.50;;;11.30;92.70;;;;;;10511872;28;20521;-78
2021/03/11 19:14:20;;;;;;;2.13;1.93;;;11.30;92.60;;;;;;10519083;28;20235;-79
2021/03/11 19:19:22;;;;;;;3.80;3.13;;;11.30;92.60;;;;;;10513285;28;20230;-80
2021/03/11 19:24:23;;;;;;;2.60;1.70;;;11.30;92.60;;;;;;10532666;28;20215;-79
2021/03/11 19:29:26;;;;;;;1.40;1.30;;;11.30;92.90;;;;;;10508882;28;20227;-79
2021/03/11 19:34:29;;;;;;;3.37;3.07;;;11.00;94.10;;;;;;10485965;28;20232;-80
2021/03/11 19:39:31;;;;;;;2.10;1.90;;;10.40;95.70;;;;;;10505194;28;20226;-80
2021/03/11 19:44:33;;;;;;;2.17;1.73;;;10.00;96.80;;;;;;10486952;28;20602;-79
2021/03/11 19:49:35;;;;;;;2.93;2.67;;;9.60;98.10;;;;;;10503950;28;20226;-81
2021/03/11 19:54:37;;;;;;;2.20;2.10;;;9.40;99.10;;;;;;10503751;28;20224;-79
2021/03/11 19:59:39;;;;;;;4.00;2.23;;;9.30;99.60;;;;;;10507908;28;20287;-79
2021/03/11 20:04:41;;;;;;;2.13;2.00;;;9.20;99.90;;;;;;10498761;28;20212;-77
2021/03/11 20:09:43;;;;;;;2.80;2.37;;;9.20;99.90;;;;;;10495342;28;20257;-79
2021/03/11 20:14:46;;;;;;;4.40;4.00;;;9.20;99.90;;;;;;10494094;28;20232;-79
2021/03/11 20:19:48;;;;;;;6.33;5.80;;;9.10;99.90;;;;;;10505506;28;20211;-79
2021/03/11 20:24:50;;;;;;;6.27;5.97;;;9.00;99.90;;;;;;10506964;28;20710;-78
2021/03/11 20:29:53;;;;;;;5.23;5.03;;;8.80;99.90;;;;;;10507079;28;20196;-80
2021/03/11 20:34:54;;;;;;;5.00;4.70;;;8.60;99.90;;;;;;10507245;28;20688;-80
2021/03/11 20:39:56;;;;;;;4.70;4.40;;;8.50;99.90;;;;;;10507930;28;20195;-79
2021/03/11 20:44:59;;;;;;;5.83;5.53;;;8.40;99.90;;;;;;10497546;28;20220;-78
2021/03/11 20:50:01;;;;;;;6.90;6.60;;;8.30;99.90;;;;;;10490443;28;20201;-79
2021/03/11 20:55:05;;;;;;;7.17;6.60;;;8.30;99.90;;;;;;10503849;28;20274;-78
2021/03/11 21:00:11;;;;;;;5.80;5.50;;;8.20;99.90;;;;;;10501204;28;20197;-79
2021/03/11 21:05:17;;;;;;;6.20;5.90;;;8.10;99.90;;;;;;10501514;28;20223;-77
2021/03/11 21:10:20;;;;;;;6.33;5.70;;;8.00;99.90;;;;;;10498070;28;20295;-79
2021/03/11 21:15:23;;;;;;;6.33;6.00;;;8.00;99.90;;;;;;10492166;28;20232;-78
2021/03/11 21:20:27;;;;;;;6.57;6.13;;;7.90;99.90;;;;;;10495138;28;20201;-81
2021/03/11 21:25:30;;;;;;;6.60;6.20;;;7.90;99.90;;;;;;10494978;28;20692;-79
2021/03/11 21:30:33;;;;;;;6.77;6.37;;;7.90;99.90;;;;;;10497883;28;20199;-79
2021/03/11 21:35:35;;;;;;;5.47;5.17;;;7.90;99.90;;;;;;10497401;28;20315;-78
2021/03/11 21:40:37;;;;;;;6.90;6.60;;;7.80;99.90;;;;;;10493183;28;20205;-79
2021/03/11 21:45:40;;;;;;;6.07;5.87;;;7.70;99.90;;;;;;10489739;28;20267;-78
2021/03/11 21:50:42;;;;;;;6.10;5.80;;;7.70;99.90;;;;;;10495339;28;20205;-78
2021/03/11 21:55:44;;;;;;;5.90;5.60;;;7.60;99.90;;;;;;10493453;28;20236;-78
2021/03/11 22:00:47;;;;;;;5.77;5.40;;;7.60;99.90;;;;;;10505289;28;20261;-79
2021/03/11 22:05:48;;;;;;;5.30;4.90;;;7.60;99.90;;;;;;10500854;28;20300;-78
2021/03/11 22:10:50;;;;;;;4.47;4.27;;;7.60;99.90;;;;;;10492508;28;20500;-78
2021/03/11 22:15:53;;;;;;;3.70;3.40;;;7.60;99.90;;;;;;10490952;28;20228;-78
2021/03/11 22:20:55;;;;;;;2.93;2.63;;;7.70;99.90;;;;;;10491830;28;20209;-78
2021/03/11 22:25:57;;;;;;;3.73;3.43;;;7.80;99.90;;;;;;10495445;28;20220;-80
2021/03/11 22:31:00;;;;;;;3.00;2.80;;;7.80;99.90;;;;;;10494696;28;20235;-79
2021/03/11 22:36:01;;;;;;;2.50;2.30;;;7.80;99.90;;;;;;10495484;28;20232;-80
2021/03/11 22:41:03;;;;;;;2.70;2.60;;;7.90;99.90;;;;;;10494682;28;20239;-78
2021/03/11 22:46:05;;;;;;;2.97;2.70;;;7.90;99.90;;;;;;10493983;28;20232;-79
2021/03/11 22:51:07;;;;;;;1.93;1.83;;;8.00;99.90;;;;;;10494615;28;20652;-78
2021/03/11 22:56:09;;;;;;;2.90;2.80;;;7.90;99.90;;;;;;10494143;28;20583;-81
2021/03/11 23:01:11;;;;;;;2.40;2.30;;;8.00;99.90;;;;;;10495347;28;20291;-80
2021/03/11 23:06:13;;;;;;;2.60;2.50;;;7.90;99.90;;;;;;10510660;28;20219;-80
2021/03/11 23:11:17;;;;;;;2.30;2.10;;;7.90;99.90;;;;;;10517034;28;20645;-79
2021/03/11 23:16:19;;;;;;;1.90;1.80;;;7.90;99.90;;;;;;10511332;28;20228;-80
2021/03/11 23:21:21;;;;;;;2.60;2.50;;;7.80;99.90;;;;;;10494647;28;20269;-79
2021/03/11 23:26:23;;;;;;;2.63;2.53;;;7.90;99.90;;;;;;10490850;28;20252;-80
2021/03/11 23:31:25;;;;;;;2.40;2.30;;;7.80;99.90;;;;;;10491368;28;20213;-78
2021/03/11 23:36:27;;;;;;;2.10;1.70;;;7.80;99.90;;;;;;10490443;28;20572;-79
2021/03/11 23:41:29;;;;;;;2.20;2.10;;;7.80;99.90;;;;;;10491308;28;20207;-78
2021/03/11 23:46:32;;;;;;;2.00;1.90;;;7.70;99.90;;;;;;10488798;28;20710;-78
2021/03/11 23:51:34;;;;;;;2.10;2.00;;;7.70;99.90;;;;;;10495657;28;20280;-77
2021/03/11 23:56:35;;;;;;;2.20;2.10;;;7.70;99.90;;;;;;10490615;28;20220;-78
